createdAt,value
2023-05-03T00:01:29.313Z,7.07
2023-05-03T00:04:15.831Z,7.07
2023-05-03T00:06:44.847Z,5.97
2023-05-03T00:09:28.518Z,5.93
2023-05-03T00:11:58.760Z,6.30
2023-05-03T00:14:42.163Z,5.20
2023-05-03T00:17:10.700Z,5.53
2023-05-03T00:19:56.276Z,5.90
2023-05-03T00:22:24.740Z,5.00
2023-05-03T00:25:09.606Z,5.33
2023-05-03T00:27:39.574Z,4.97
2023-05-03T00:30:23.850Z,5.30
2023-05-03T00:32:52.719Z,5.30
2023-05-03T00:35:36.656Z,6.63
2023-05-03T00:38:05.198Z,7.03
2023-05-03T00:40:55.642Z,5.60
2023-05-03T00:43:25.492Z,7.27
2023-05-03T00:46:17.162Z,5.93
2023-05-03T00:48:46.735Z,5.97
2023-05-03T00:51:31.165Z,5.30
2023-05-03T00:53:59.724Z,7.47
2023-05-03T00:56:50.997Z,7.03
2023-05-03T00:59:23.729Z,6.03
2023-05-03T01:02:07.335Z,6.33
2023-05-03T01:04:37.113Z,5.70
2023-05-03T01:07:30.604Z,4.83
2023-05-03T01:10:06.112Z,6.63
2023-05-03T01:12:45.314Z,9.03
2023-05-03T01:15:43.361Z,6.63
2023-05-03T01:18:15.657Z,6.60
2023-05-03T01:21:01.935Z,6.33
2023-05-03T01:23:37.558Z,7.03
2023-05-03T01:26:22.890Z,6.50
2023-05-03T01:28:53.581Z,7.77
2023-05-03T01:31:45.299Z,8.10
2023-05-03T01:34:23.103Z,6.33
2023-05-03T01:37:10.418Z,6.20
2023-05-03T01:39:43.381Z,8.70
2023-05-03T01:42:28.602Z,6.60
2023-05-03T01:44:58.114Z,7.83
2023-05-03T01:47:41.596Z,6.00
2023-05-03T01:50:10.968Z,6.43
2023-05-03T01:52:54.196Z,5.83
2023-05-03T01:55:22.490Z,5.80
2023-05-03T01:58:07.784Z,6.77
2023-05-03T02:00:36.559Z,6.40
2023-05-03T02:03:22.343Z,5.80
2023-05-03T02:05:50.756Z,7.27
2023-05-03T02:08:36.302Z,6.10
2023-05-03T02:11:04.681Z,6.33
2023-05-03T02:13:50.459Z,8.43
2023-05-03T02:16:20.242Z,5.97
2023-05-03T02:19:04.289Z,6.20
2023-05-03T02:21:42.984Z,6.83
2023-05-03T02:24:26.286Z,6.57
2023-05-03T02:26:56.384Z,9.87
2023-05-03T02:29:43.651Z,6.10
2023-05-03T02:32:13.493Z,5.50
2023-05-03T02:34:57.185Z,6.33
2023-05-03T02:37:26.903Z,6.13
2023-05-03T02:40:11.142Z,7.20
2023-05-03T02:42:40.518Z,6.90
2023-05-03T02:45:26.634Z,6.50
2023-05-03T02:47:55.775Z,7.10
2023-05-03T02:50:40.963Z,7.17
2023-05-03T02:53:09.490Z,6.27
2023-05-03T02:55:53.438Z,6.83
2023-05-03T02:58:22.179Z,7.60
2023-05-03T03:01:07.774Z,7.37
2023-05-03T03:03:36.625Z,7.93
2023-05-03T03:06:20.232Z,7.33
2023-05-03T03:08:49.457Z,7.13
2023-05-03T03:11:33.469Z,7.53
2023-05-03T03:14:03.446Z,6.63
2023-05-03T03:16:48.376Z,9.13
2023-05-03T03:19:16.860Z,7.13
2023-05-03T03:22:00.311Z,6.53
2023-05-03T03:24:28.738Z,6.93
2023-05-03T03:27:12.058Z,7.47
2023-05-03T03:29:41.319Z,8.27
2023-05-03T03:32:30.746Z,6.40
2023-05-03T03:35:01.515Z,6.23
2023-05-03T03:37:47.203Z,6.67
2023-05-03T03:40:16.332Z,6.63
2023-05-03T03:43:00.842Z,7.10
2023-05-03T03:45:30.349Z,7.67
2023-05-03T03:48:16.726Z,7.77
2023-05-03T03:50:45.759Z,9.00
2023-05-03T03:53:30.802Z,8.13
2023-05-03T03:55:59.375Z,7.53
2023-05-03T03:58:42.775Z,9.27
2023-05-03T04:01:13.121Z,9.20
2023-05-03T04:03:58.085Z,7.53
2023-05-03T04:06:27.168Z,9.97
2023-05-03T04:09:12.440Z,8.80
2023-05-03T04:11:42.329Z,7.80
2023-05-03T04:14:25.704Z,8.37
2023-05-03T04:16:56.179Z,7.80
2023-05-03T04:19:41.476Z,7.37
2023-05-03T04:22:10.773Z,8.20
2023-05-03T04:24:54.775Z,9.17
2023-05-03T04:27:23.483Z,8.27
2023-05-03T04:30:08.473Z,9.87
2023-05-03T04:32:37.962Z,8.00
2023-05-03T04:35:28.829Z,7.33
2023-05-03T04:37:59.446Z,10.20
2023-05-03T04:40:46.438Z,10.17
2023-05-03T04:43:16.693Z,11.07
2023-05-03T04:46:03.502Z,9.40
2023-05-03T04:48:32.992Z,9.03
2023-05-03T04:51:18.790Z,9.37
2023-05-03T04:53:48.686Z,10.77
2023-05-03T04:56:36.411Z,10.57
2023-05-03T04:59:13.027Z,9.23
2023-05-03T05:01:56.776Z,8.67
2023-05-03T05:04:26.486Z,11.43
2023-05-03T05:07:11.498Z,10.37
2023-05-03T05:09:39.906Z,11.10
2023-05-03T05:12:23.502Z,10.60
2023-05-03T05:14:51.900Z,9.10
2023-05-03T05:17:36.162Z,8.60
2023-05-03T05:20:12.432Z,10.00
2023-05-03T05:23:02.280Z,12.17
2023-05-03T05:25:30.775Z,9.47
2023-05-03T05:28:15.963Z,10.27
2023-05-03T05:30:45.373Z,11.07
2023-05-03T05:33:29.400Z,12.67
2023-05-03T05:35:59.566Z,9.83
2023-05-03T05:38:45.994Z,9.53
2023-05-03T05:41:14.828Z,9.80
2023-05-03T05:44:01.176Z,11.97
2023-05-03T05:46:32.240Z,10.13
2023-05-03T05:49:16.174Z,10.40
2023-05-03T05:51:45.885Z,10.20
2023-05-03T05:54:30.977Z,9.93
2023-05-03T05:57:00.959Z,10.40
2023-05-03T05:59:45.619Z,9.60
2023-05-03T06:02:18.057Z,10.23
2023-05-03T06:05:05.653Z,11.67
2023-05-03T06:07:36.645Z,8.20
2023-05-03T06:10:22.164Z,11.33
2023-05-03T06:12:53.816Z,9.30
2023-05-03T06:15:42.303Z,10.30
2023-05-03T06:18:10.787Z,12.23
2023-05-03T06:20:54.174Z,10.60
2023-05-03T06:23:25.034Z,11.57
2023-05-03T06:26:11.201Z,17.50
2023-05-03T06:28:41.911Z,7.77
2023-05-03T06:31:26.869Z,7.97
2023-05-03T06:33:58.579Z,8.60
2023-05-03T06:36:43.363Z,8.23
2023-05-03T06:39:11.960Z,9.77
2023-05-03T06:41:56.853Z,10.73
2023-05-03T06:44:35.661Z,8.00
2023-05-03T06:47:20.904Z,11.03
2023-05-03T06:49:49.368Z,10.33
2023-05-03T06:52:32.890Z,10.03
2023-05-03T06:55:01.866Z,10.30
2023-05-03T06:57:47.940Z,8.60
2023-05-03T07:00:17.451Z,9.47
2023-05-03T07:03:01.254Z,10.37
2023-05-03T07:05:30.683Z,11.83
2023-05-03T07:08:14.238Z,10.57
2023-05-03T07:10:42.908Z,8.73
2023-05-03T07:13:27.660Z,9.57
2023-05-03T07:15:56.650Z,14.53
2023-05-03T07:18:40.042Z,8.80
2023-05-03T07:21:09.454Z,10.00
2023-05-03T07:23:53.187Z,8.20
2023-05-03T07:26:21.813Z,10.83
2023-05-03T07:29:06.830Z,8.60
2023-05-03T07:31:38.028Z,8.87
2023-05-03T07:34:21.374Z,10.13
2023-05-03T07:36:50.248Z,9.90
2023-05-03T07:39:33.724Z,8.60
2023-05-03T07:42:03.339Z,8.77
2023-05-03T07:44:48.167Z,10.00
2023-05-03T07:47:16.745Z,9.33
2023-05-03T07:50:00.523Z,7.70
2023-05-03T07:52:29.246Z,8.93
2023-05-03T07:55:12.647Z,10.73
2023-05-03T07:57:41.302Z,7.83
2023-05-03T08:00:26.231Z,10.23
2023-05-03T08:02:54.862Z,10.90
2023-05-03T08:05:38.908Z,9.10
2023-05-03T08:08:07.547Z,9.90
2023-05-03T08:10:53.207Z,8.93
2023-05-03T08:13:22.692Z,10.80
2023-05-03T08:16:08.546Z,9.27
2023-05-03T08:18:37.454Z,11.97
2023-05-03T08:21:22.099Z,10.40
2023-05-03T08:23:50.982Z,8.93
2023-05-03T08:26:35.078Z,8.30
2023-05-03T08:29:03.935Z,10.63
2023-05-03T08:31:48.958Z,11.07
2023-05-03T08:34:17.587Z,7.57
2023-05-03T08:37:01.387Z,9.27
2023-05-03T08:39:31.313Z,8.37
2023-05-03T08:42:14.884Z,9.83
2023-05-03T08:44:49.493Z,8.40
2023-05-03T08:47:38.627Z,11.67
2023-05-03T08:50:08.944Z,9.97
2023-05-03T08:52:52.377Z,10.37
2023-05-03T08:55:21.480Z,8.77
2023-05-03T08:58:10.471Z,11.20
2023-05-03T09:00:39.088Z,11.17
2023-05-03T09:03:25.389Z,8.27
2023-05-03T09:05:55.122Z,8.73
2023-05-03T09:08:44.486Z,8.30
2023-05-03T09:11:22.982Z,7.67
2023-05-03T09:14:11.581Z,9.00
2023-05-03T09:16:41.377Z,7.97
2023-05-03T09:19:26.273Z,8.50
2023-05-03T09:22:08.284Z,10.03
2023-05-03T09:24:55.797Z,10.10
2023-05-03T09:27:24.981Z,8.77
2023-05-03T09:30:20.323Z,9.77
2023-05-03T09:32:49.620Z,6.97
2023-05-03T09:35:34.594Z,8.93
2023-05-03T09:38:03.148Z,8.53
2023-05-03T09:40:49.310Z,11.30
2023-05-03T09:43:19.521Z,7.00
2023-05-03T09:46:10.822Z,6.90
2023-05-03T09:48:39.819Z,7.40
2023-05-03T09:51:26.331Z,8.10
2023-05-03T09:53:57.435Z,7.47
2023-05-03T09:56:40.886Z,5.90
2023-05-03T09:59:11.423Z,7.80
2023-05-03T10:01:59.943Z,6.43
2023-05-03T10:04:29.633Z,8.80
2023-05-03T10:07:18.452Z,8.70
2023-05-03T10:09:48.664Z,7.30
2023-05-03T10:12:34.822Z,7.53
2023-05-03T10:15:07.470Z,6.93
2023-05-03T10:17:53.907Z,6.63
2023-05-03T10:20:30.053Z,8.73
2023-05-03T10:23:15.449Z,6.53
2023-05-03T10:26:14.431Z,6.17
2023-05-03T10:29:01.334Z,6.50
2023-05-03T10:31:47.034Z,6.43
2023-05-03T10:34:33.369Z,6.97
2023-05-03T10:37:04.192Z,6.67
2023-05-03T10:39:48.875Z,6.40
2023-05-03T10:42:17.364Z,7.00
2023-05-03T10:45:03.749Z,6.10
2023-05-03T10:47:34.627Z,6.20
2023-05-03T10:50:28.652Z,7.57
2023-05-03T10:52:59.185Z,6.33
2023-05-03T10:56:02.621Z,7.13
2023-05-03T10:58:32.115Z,5.73
2023-05-03T11:01:17.134Z,6.60
2023-05-03T11:03:51.936Z,6.47
2023-05-03T11:06:36.871Z,6.47
2023-05-03T11:09:07.809Z,5.60
2023-05-03T11:11:52.760Z,8.57
2023-05-03T11:14:21.271Z,6.07
2023-05-03T11:17:04.636Z,6.27
2023-05-03T11:19:33.740Z,5.03
2023-05-03T11:22:17.335Z,5.60
2023-05-03T11:24:47.207Z,4.20
2023-05-03T11:27:33.586Z,6.67
2023-05-03T11:30:02.154Z,7.60
2023-05-03T11:32:45.959Z,5.97
2023-05-03T11:35:17.946Z,11.37
2023-05-03T11:38:01.515Z,8.70
2023-05-03T11:40:29.909Z,4.70
2023-05-03T11:43:14.747Z,6.87
2023-05-03T11:45:45.724Z,4.67
2023-05-03T11:48:32.328Z,5.00
2023-05-03T11:51:01.810Z,6.03
2023-05-03T11:53:48.409Z,4.40
2023-05-03T11:56:18.945Z,6.57
2023-05-03T11:59:04.298Z,5.13
2023-05-03T12:01:32.819Z,4.50
2023-05-03T12:04:16.646Z,5.40
2023-05-03T12:06:52.793Z,4.97
2023-05-03T12:09:39.598Z,6.40
2023-05-03T12:12:13.833Z,5.10
2023-05-03T12:15:03.635Z,5.23
2023-05-03T12:17:38.816Z,3.80
2023-05-03T12:21:26.832Z,3.83
2023-05-03T12:23:15.302Z,4.40
2023-05-03T12:26:01.354Z,4.00
2023-05-03T12:28:30.210Z,6.87
2023-05-03T12:31:17.932Z,4.40
2023-05-03T12:34:03.895Z,5.50
2023-05-03T12:36:53.879Z,4.67
2023-05-03T12:39:24.037Z,4.93
2023-05-03T12:42:13.264Z,3.93
2023-05-03T12:44:47.103Z,4.60
2023-05-03T12:47:36.147Z,3.37
2023-05-03T12:50:06.239Z,4.67
2023-05-03T12:52:52.529Z,3.87
2023-05-03T12:55:24.877Z,4.03
2023-05-03T13:00:48.325Z,5.30
2023-05-03T13:03:43.125Z,4.30
2023-05-03T13:06:14.931Z,3.07
2023-05-03T13:09:02.988Z,3.00
2023-05-03T13:11:34.844Z,3.73
2023-05-03T13:14:18.590Z,2.73
2023-05-03T13:16:49.263Z,4.07
2023-05-03T13:19:34.322Z,3.67
2023-05-03T13:22:02.694Z,3.73
2023-05-03T13:24:48.295Z,3.93
2023-05-03T13:27:18.163Z,3.00
2023-05-03T13:30:05.088Z,4.23
2023-05-03T13:32:34.793Z,3.67
2023-05-03T13:35:22.967Z,3.03
2023-05-03T13:37:51.399Z,4.33
2023-05-03T13:40:34.878Z,3.23
2023-05-03T13:43:05.420Z,3.37
2023-05-03T13:45:48.913Z,2.03
2023-05-03T13:48:18.598Z,3.40
2023-05-03T13:50:49.475Z,4.13
2023-05-03T13:53:17.833Z,3.77
2023-05-03T13:55:46.418Z,4.73
2023-05-03T13:58:15.108Z,3.43
2023-05-03T14:00:43.638Z,3.60
2023-05-03T14:03:13.141Z,3.17
2023-05-03T14:05:41.780Z,4.30
2023-05-03T14:08:12.649Z,6.07
2023-05-03T14:10:41.354Z,3.33
2023-05-03T14:13:10.045Z,2.33
2023-05-03T14:15:40.898Z,2.80
2023-05-03T14:18:10.281Z,3.23
2023-05-03T14:20:38.835Z,2.43
2023-05-03T14:23:07.242Z,3.63
2023-05-03T14:25:37.801Z,3.87
2023-05-03T14:28:06.389Z,3.40
2023-05-03T14:30:34.908Z,4.30
2023-05-03T14:33:04.018Z,3.43
2023-05-03T14:35:32.511Z,3.80
2023-05-03T14:38:01.045Z,3.67
2023-05-03T14:40:29.530Z,2.30
2023-05-03T14:42:59.296Z,2.87
2023-05-03T14:45:27.710Z,2.33
2023-05-03T14:47:56.096Z,2.97
2023-05-03T14:50:26.324Z,2.23
2023-05-03T14:52:54.990Z,2.90
2023-05-03T14:55:23.361Z,3.57
2023-05-03T14:57:52.066Z,2.33
2023-05-03T15:00:22.235Z,2.73
2023-05-03T15:02:56.201Z,3.40
2023-05-03T15:05:24.927Z,3.07
2023-05-03T15:07:53.747Z,3.23
2023-05-03T15:10:22.501Z,3.00
2023-05-03T15:12:51.060Z,2.27
2023-05-03T15:15:21.091Z,2.90
2023-05-03T15:17:49.653Z,3.57
2023-05-03T15:20:18.346Z,4.10
2023-05-03T15:22:46.814Z,4.67
2023-05-03T15:25:15.998Z,4.60
2023-05-03T15:27:44.374Z,3.77
2023-05-03T15:30:17.291Z,3.50
2023-05-03T15:32:47.343Z,2.30
2023-05-03T15:35:16.287Z,3.50
2023-05-03T15:37:45.531Z,5.07
2023-05-03T15:40:14.483Z,5.43
2023-05-03T15:42:43.045Z,4.97
2023-05-03T15:45:13.150Z,3.40
2023-05-03T15:47:43.965Z,3.30
2023-05-03T15:50:14.176Z,3.53
2023-05-03T15:52:42.539Z,3.93
2023-05-03T15:55:11.952Z,2.90
2023-05-03T15:57:40.578Z,4.57
2023-05-03T16:00:13.776Z,2.90
2023-05-03T16:02:42.895Z,3.83
2023-05-03T16:05:13.347Z,4.73
2023-05-03T16:07:41.935Z,4.13
2023-05-03T16:10:11.481Z,4.13
2023-05-03T16:12:40.870Z,3.80
2023-05-03T16:15:12.613Z,3.73
2023-05-03T16:17:41.236Z,2.33
2023-05-03T16:20:11.709Z,4.57
2023-05-03T16:22:41.557Z,1.93
2023-05-03T16:25:11.356Z,2.90
2023-05-03T16:28:08.884Z,4.93
2023-05-03T16:30:37.920Z,2.83
2023-05-03T16:33:06.571Z,2.43
2023-05-03T16:35:35.524Z,6.00
2023-05-03T16:38:07.320Z,3.93
2023-05-03T16:40:39.477Z,3.17
2023-05-03T16:43:08.900Z,6.33
2023-05-03T16:45:37.577Z,2.87
2023-05-03T16:48:10.817Z,2.80
2023-05-03T16:50:43.941Z,2.40
2023-05-03T16:53:14.697Z,4.77
2023-05-03T16:55:43.271Z,2.47
2023-05-03T16:58:11.910Z,4.57
2023-05-03T17:00:42.371Z,2.57
2023-05-03T17:03:11.077Z,3.37
2023-05-03T17:05:39.636Z,2.87
2023-05-03T17:08:09.077Z,3.50
2023-05-03T17:10:39.529Z,2.97
2023-05-03T17:13:09.475Z,5.40
2023-05-03T17:15:39.098Z,3.60
2023-05-03T17:18:08.678Z,3.13
2023-05-03T17:20:37.937Z,3.53
2023-05-03T17:23:06.837Z,3.37
2023-05-03T17:25:35.794Z,2.17
2023-05-03T17:28:05.914Z,4.50
2023-05-03T17:30:34.903Z,2.53
2023-05-03T17:33:03.340Z,3.40
2023-05-03T17:35:31.751Z,3.27
2023-05-03T17:38:00.645Z,2.60
2023-05-03T17:40:29.020Z,3.63
2023-05-03T17:42:57.622Z,2.13
2023-05-03T17:45:29.660Z,2.63
2023-05-03T17:47:58.835Z,2.30
2023-05-03T17:50:28.331Z,2.67
2023-05-03T17:52:57.418Z,3.10
2023-05-03T17:55:26.389Z,3.87
2023-05-03T17:57:54.858Z,3.47
2023-05-03T18:00:25.469Z,3.50
2023-05-03T18:02:56.445Z,4.13
2023-05-03T18:05:24.986Z,2.60
2023-05-03T18:07:53.477Z,3.97
2023-05-03T18:10:22.449Z,4.07
2023-05-03T18:12:51.277Z,3.77
2023-05-03T18:15:20.049Z,2.53
2023-05-03T18:17:48.634Z,2.57
2023-05-03T18:20:19.520Z,2.70
2023-05-03T18:22:48.071Z,3.67
2023-05-03T18:25:17.116Z,2.47
2023-05-03T18:27:46.587Z,1.97
2023-05-03T18:30:15.534Z,2.37
2023-05-03T18:32:44.523Z,2.30
2023-05-03T18:35:13.037Z,2.77
2023-05-03T18:37:44.374Z,3.33
2023-05-03T18:40:13.638Z,3.03
2023-05-03T18:42:43.993Z,3.63
2023-05-03T18:45:17.430Z,3.47
2023-05-03T18:47:45.855Z,2.13
2023-05-03T18:50:14.442Z,2.17
2023-05-03T18:52:44.242Z,4.07
2023-05-03T18:55:14.831Z,2.77
2023-05-03T18:57:44.001Z,3.83
2023-05-03T19:00:14.013Z,3.17
2023-05-03T19:02:42.644Z,3.60
2023-05-03T19:05:12.779Z,2.37
2023-05-03T19:07:47.407Z,3.33
2023-05-03T19:10:17.435Z,3.03
2023-05-03T19:12:47.310Z,3.20
2023-05-03T19:15:16.968Z,2.63
2023-05-03T19:17:46.797Z,3.80
2023-05-03T19:20:15.612Z,2.80
2023-05-03T19:22:46.370Z,1.77
2023-05-03T19:25:15.367Z,2.33
2023-05-03T19:27:46.027Z,2.57
2023-05-03T19:30:14.916Z,2.70
2023-05-03T19:32:43.858Z,2.83
2023-05-03T19:35:13.111Z,2.50
2023-05-03T19:37:42.546Z,2.97
2023-05-03T19:40:15.617Z,3.20
2023-05-03T19:42:43.981Z,2.40
2023-05-03T19:45:14.250Z,3.97
2023-05-03T19:47:42.908Z,4.00
2023-05-03T19:50:12.216Z,2.70
2023-05-03T19:52:42.254Z,3.43
2023-05-03T19:55:11.802Z,3.33
2023-05-03T19:57:45.933Z,2.40
2023-05-03T20:00:34.628Z,2.30
2023-05-03T20:03:25.354Z,4.83
2023-05-03T20:06:14.667Z,3.17
2023-05-03T20:09:04.657Z,3.67
2023-05-03T20:11:58.704Z,3.57
2023-05-03T20:14:51.049Z,4.40
2023-05-03T20:17:39.717Z,2.70
2023-05-03T20:20:28.704Z,4.33
2023-05-03T20:23:17.529Z,2.83
2023-05-03T20:26:06.539Z,2.03
2023-05-03T20:28:55.366Z,7.20
2023-05-03T20:31:52.384Z,3.60
2023-05-03T20:34:42.680Z,3.63
2023-05-03T20:37:31.629Z,3.20
2023-05-03T20:40:20.530Z,3.10
2023-05-03T20:43:10.251Z,4.80
2023-05-03T20:46:00.207Z,2.53
2023-05-03T20:48:50.447Z,3.93
2023-05-03T20:51:39.284Z,2.30
2023-05-03T20:54:28.055Z,3.37
2023-05-03T20:57:16.862Z,4.10
2023-05-03T21:00:07.551Z,3.67
2023-05-03T21:02:56.314Z,4.47
2023-05-03T21:05:46.845Z,3.70
2023-05-03T21:08:35.869Z,4.90
2023-05-03T21:11:24.556Z,3.40
2023-05-03T21:14:14.571Z,2.93
2023-05-03T21:17:03.347Z,2.23
2023-05-03T21:19:52.945Z,7.10
2023-05-03T21:22:43.113Z,4.30
2023-05-03T21:25:31.933Z,2.47
2023-05-03T21:28:22.271Z,2.83
2023-05-03T21:31:11.372Z,2.80
2023-05-03T21:34:00.135Z,3.50
2023-05-03T21:36:48.866Z,4.00
2023-05-03T21:39:40.568Z,5.27
2023-05-03T21:42:30.201Z,3.13
2023-05-03T21:45:19.034Z,2.53
2023-05-03T21:48:07.785Z,3.77
2023-05-03T21:50:56.677Z,4.07
2023-05-03T21:53:45.361Z,6.80
2023-05-03T21:56:36.960Z,2.70
2023-05-03T21:59:25.917Z,3.70
2023-05-03T22:02:14.700Z,2.87
2023-05-03T22:05:03.573Z,4.77
2023-05-03T22:07:52.257Z,3.70
2023-05-03T22:10:41.538Z,4.23
2023-05-03T22:13:32.170Z,4.37
2023-05-03T22:16:21.029Z,4.20
2023-05-03T22:19:10.152Z,2.77
2023-05-03T22:21:59.417Z,5.40
2023-05-03T22:24:48.296Z,2.93
2023-05-03T22:27:38.102Z,3.70
2023-05-03T22:30:28.509Z,2.70
2023-05-03T22:33:17.937Z,3.13
2023-05-03T22:36:07.291Z,2.57
2023-05-03T22:39:00.880Z,3.70
2023-05-03T22:41:49.714Z,5.63
2023-05-03T22:44:38.611Z,5.07
2023-05-03T22:47:29.531Z,3.83
2023-05-03T22:50:18.418Z,5.07
2023-05-03T22:53:07.166Z,3.40
2023-05-03T22:55:57.832Z,2.83
2023-05-03T22:58:48.251Z,3.57
2023-05-03T23:01:37.595Z,3.50
2023-05-03T23:04:27.761Z,4.97
2023-05-03T23:07:16.626Z,3.47
2023-05-03T23:10:07.455Z,5.03
2023-05-03T23:12:56.569Z,3.70
2023-05-03T23:15:45.299Z,3.97
2023-05-03T23:18:34.424Z,3.87
2023-05-03T23:21:24.899Z,3.67
2023-05-03T23:24:13.694Z,4.10
2023-05-03T23:27:03.001Z,3.50
2023-05-03T23:29:52.091Z,3.80
2023-05-03T23:32:42.315Z,5.63
2023-05-03T23:35:31.772Z,4.00
2023-05-03T23:38:22.242Z,5.63
2023-05-03T23:41:11.042Z,3.50
2023-05-03T23:43:59.743Z,3.60
2023-05-03T23:46:48.553Z,3.67
2023-05-03T23:49:37.749Z,2.63
2023-05-03T23:52:26.497Z,5.87
2023-05-03T23:55:16.532Z,3.60
2023-05-03T23:58:05.231Z,3.27
